sensor_id;sensor_type;location;lat;lon;timestamp;P1;durP1;ratioP1;P2;durP2;ratioP2
76127;SDS011;64873;50.102;14.434;2023-04-28T00:01:09;22.25;;;11.35;;
76127;SDS011;64873;50.102;14.434;2023-04-28T00:03:35;26.33;;;12.55;;
76127;SDS011;64873;50.102;14.434;2023-04-28T00:06:01;34.38;;;12.45;;
76127;SDS011;64873;50.102;14.434;2023-04-28T00:08:27;26.23;;;11.60;;
76127;SDS011;64873;50.102;14.434;2023-04-28T00:10:52;25.98;;;11.70;;
76127;SDS011;64873;50.102;14.434;2023-04-28T00:13:18;29.33;;;12.00;;
76127;SDS011;64873;50.102;14.434;2023-04-28T00:15:43;24.08;;;11.52;;
76127;SDS011;64873;50.102;14.434;2023-04-28T00:18:09;19.35;;;10.98;;
76127;SDS011;64873;50.102;14.434;2023-04-28T00:20:34;26.60;;;12.25;;
76127;SDS011;64873;50.102;14.434;2023-04-28T00:23:00;25.25;;;12.30;;
76127;SDS011;64873;50.102;14.434;2023-04-28T00:25:25;24.08;;;11.80;;
76127;SDS011;64873;50.102;14.434;2023-04-28T00:27:50;26.60;;;12.27;;
76127;SDS011;64873;50.102;14.434;2023-04-28T00:30:16;27.88;;;11.80;;
76127;SDS011;64873;50.102;14.434;2023-04-28T00:32:41;25.75;;;11.93;;
76127;SDS011;64873;50.102;14.434;2023-04-28T00:35:07;32.28;;;11.48;;
76127;SDS011;64873;50.102;14.434;2023-04-28T00:37:36;30.90;;;12.25;;
76127;SDS011;64873;50.102;14.434;2023-04-28T00:40:02;27.45;;;11.25;;
76127;SDS011;64873;50.102;14.434;2023-04-28T00:42:27;23.35;;;12.07;;
76127;SDS011;64873;50.102;14.434;2023-04-28T00:44:53;23.23;;;10.98;;
76127;SDS011;64873;50.102;14.434;2023-04-28T00:47:18;19.75;;;10.77;;
76127;SDS011;64873;50.102;14.434;2023-04-28T00:49:44;23.25;;;10.77;;
76127;SDS011;64873;50.102;14.434;2023-04-28T00:52:11;21.23;;;11.90;;
76127;SDS011;64873;50.102;14.434;2023-04-28T00:54:37;21.45;;;11.20;;
76127;SDS011;64873;50.102;14.434;2023-04-28T00:57:02;28.00;;;11.77;;
76127;SDS011;64873;50.102;14.434;2023-04-28T00:59:28;22.27;;;11.48;;
76127;SDS011;64873;50.102;14.434;2023-04-28T01:01:54;22.25;;;11.40;;
76127;SDS011;64873;50.102;14.434;2023-04-28T01:04:20;25.05;;;11.57;;
76127;SDS011;64873;50.102;14.434;2023-04-28T01:06:47;25.45;;;12.20;;
76127;SDS011;64873;50.102;14.434;2023-04-28T01:09:15;27.70;;;12.20;;
76127;SDS011;64873;50.102;14.434;2023-04-28T01:11:40;26.05;;;11.57;;
76127;SDS011;64873;50.102;14.434;2023-04-28T01:14:06;27.27;;;11.93;;
76127;SDS011;64873;50.102;14.434;2023-04-28T01:16:31;34.05;;;12.88;;
76127;SDS011;64873;50.102;14.434;2023-04-28T01:18:58;21.67;;;11.00;;
76127;SDS011;64873;50.102;14.434;2023-04-28T01:21:27;23.77;;;12.57;;
76127;SDS011;64873;50.102;14.434;2023-04-28T01:23:59;29.55;;;12.85;;
76127;SDS011;64873;50.102;14.434;2023-04-28T01:26:25;26.73;;;12.73;;
76127;SDS011;64873;50.102;14.434;2023-04-28T01:28:51;26.15;;;11.93;;
76127;SDS011;64873;50.102;14.434;2023-04-28T01:31:17;28.42;;;12.65;;
76127;SDS011;64873;50.102;14.434;2023-04-28T01:33:42;23.70;;;11.90;;
76127;SDS011;64873;50.102;14.434;2023-04-28T01:36:08;23.45;;;11.93;;
76127;SDS011;64873;50.102;14.434;2023-04-28T01:38:33;24.65;;;12.40;;
76127;SDS011;64873;50.102;14.434;2023-04-28T01:40:59;23.88;;;12.00;;
76127;SDS011;64873;50.102;14.434;2023-04-28T01:43:26;24.67;;;12.20;;
76127;SDS011;64873;50.102;14.434;2023-04-28T01:45:52;24.25;;;11.93;;
76127;SDS011;64873;50.102;14.434;2023-04-28T01:48:17;24.23;;;12.32;;
76127;SDS011;64873;50.102;14.434;2023-04-28T01:50:43;25.63;;;12.25;;
76127;SDS011;64873;50.102;14.434;2023-04-28T01:53:08;26.35;;;12.52;;
76127;SDS011;64873;50.102;14.434;2023-04-28T01:55:33;22.75;;;12.60;;
76127;SDS011;64873;50.102;14.434;2023-04-28T01:57:59;23.45;;;12.38;;
76127;SDS011;64873;50.102;14.434;2023-04-28T02:00:24;29.17;;;13.02;;
76127;SDS011;64873;50.102;14.434;2023-04-28T02:02:51;27.23;;;12.13;;
76127;SDS011;64873;50.102;14.434;2023-04-28T02:05:16;32.03;;;14.10;;
76127;SDS011;64873;50.102;14.434;2023-04-28T02:07:42;23.00;;;12.48;;
76127;SDS011;64873;50.102;14.434;2023-04-28T02:10:08;28.92;;;13.93;;
76127;SDS011;64873;50.102;14.434;2023-04-28T02:12:33;23.75;;;12.80;;
76127;SDS011;64873;50.102;14.434;2023-04-28T02:14:59;32.65;;;13.95;;
76127;SDS011;64873;50.102;14.434;2023-04-28T02:17:25;26.33;;;13.38;;
76127;SDS011;64873;50.102;14.434;2023-04-28T02:19:54;32.08;;;14.50;;
76127;SDS011;64873;50.102;14.434;2023-04-28T02:22:23;24.85;;;12.85;;
76127;SDS011;64873;50.102;14.434;2023-04-28T02:24:48;23.05;;;13.18;;
76127;SDS011;64873;50.102;14.434;2023-04-28T02:27:14;35.30;;;14.25;;
76127;SDS011;64873;50.102;14.434;2023-04-28T02:29:39;24.92;;;12.70;;
76127;SDS011;64873;50.102;14.434;2023-04-28T02:32:06;27.00;;;13.73;;
76127;SDS011;64873;50.102;14.434;2023-04-28T02:34:32;28.90;;;13.13;;
76127;SDS011;64873;50.102;14.434;2023-04-28T02:36:57;27.52;;;14.00;;
76127;SDS011;64873;50.102;14.434;2023-04-28T02:39:23;28.15;;;12.80;;
76127;SDS011;64873;50.102;14.434;2023-04-28T02:41:51;26.42;;;13.07;;
76127;SDS011;64873;50.102;14.434;2023-04-28T02:44:17;30.85;;;13.63;;
76127;SDS011;64873;50.102;14.434;2023-04-28T02:46:42;25.98;;;13.00;;
76127;SDS011;64873;50.102;14.434;2023-04-28T02:49:07;31.33;;;13.50;;
76127;SDS011;64873;50.102;14.434;2023-04-28T02:51:33;23.35;;;12.02;;
76127;SDS011;64873;50.102;14.434;2023-04-28T02:53:58;27.02;;;13.43;;
76127;SDS011;64873;50.102;14.434;2023-04-28T02:56:24;30.58;;;13.85;;
76127;SDS011;64873;50.102;14.434;2023-04-28T02:58:49;27.33;;;12.35;;
76127;SDS011;64873;50.102;14.434;2023-04-28T03:01:15;26.30;;;13.13;;
76127;SDS011;64873;50.102;14.434;2023-04-28T03:03:40;27.25;;;12.23;;
76127;SDS011;64873;50.102;14.434;2023-04-28T03:06:06;25.73;;;12.55;;
76127;SDS011;64873;50.102;14.434;2023-04-28T03:08:31;26.85;;;13.23;;
76127;SDS011;64873;50.102;14.434;2023-04-28T03:10:57;26.67;;;12.77;;
76127;SDS011;64873;50.102;14.434;2023-04-28T03:13:22;29.42;;;13.50;;
76127;SDS011;64873;50.102;14.434;2023-04-28T03:15:48;29.10;;;13.77;;
76127;SDS011;64873;50.102;14.434;2023-04-28T03:18:13;25.42;;;14.25;;
76127;SDS011;64873;50.102;14.434;2023-04-28T03:20:39;29.50;;;13.85;;
76127;SDS011;64873;50.102;14.434;2023-04-28T03:23:04;26.88;;;13.82;;
76127;SDS011;64873;50.102;14.434;2023-04-28T03:25:29;19.58;;;12.55;;
76127;SDS011;64873;50.102;14.434;2023-04-28T03:27:55;26.10;;;13.05;;
76127;SDS011;64873;50.102;14.434;2023-04-28T03:30:20;24.17;;;12.55;;
76127;SDS011;64873;50.102;14.434;2023-04-28T03:32:46;20.15;;;12.05;;
76127;SDS011;64873;50.102;14.434;2023-04-28T03:35:11;28.33;;;13.85;;
76127;SDS011;64873;50.102;14.434;2023-04-28T03:37:37;26.50;;;13.50;;
76127;SDS011;64873;50.102;14.434;2023-04-28T03:40:03;27.05;;;13.02;;
76127;SDS011;64873;50.102;14.434;2023-04-28T03:42:28;22.75;;;13.02;;
76127;SDS011;64873;50.102;14.434;2023-04-28T03:44:54;22.50;;;12.98;;
76127;SDS011;64873;50.102;14.434;2023-04-28T03:47:19;24.63;;;13.75;;
76127;SDS011;64873;50.102;14.434;2023-04-28T03:49:45;22.67;;;12.63;;
76127;SDS011;64873;50.102;14.434;2023-04-28T03:52:10;25.30;;;12.65;;
76127;SDS011;64873;50.102;14.434;2023-04-28T03:54:36;23.80;;;12.15;;
76127;SDS011;64873;50.102;14.434;2023-04-28T03:57:01;23.08;;;12.45;;
76127;SDS011;64873;50.102;14.434;2023-04-28T03:59:28;23.83;;;12.02;;
76127;SDS011;64873;50.102;14.434;2023-04-28T04:01:53;27.58;;;12.30;;
76127;SDS011;64873;50.102;14.434;2023-04-28T04:04:19;23.88;;;12.27;;
76127;SDS011;64873;50.102;14.434;2023-04-28T04:06:44;25.08;;;12.27;;
76127;SDS011;64873;50.102;14.434;2023-04-28T04:09:10;24.83;;;11.55;;
76127;SDS011;64873;50.102;14.434;2023-04-28T04:11:36;22.77;;;11.70;;
76127;SDS011;64873;50.102;14.434;2023-04-28T04:14:01;23.70;;;11.88;;
76127;SDS011;64873;50.102;14.434;2023-04-28T04:16:26;28.17;;;12.25;;
76127;SDS011;64873;50.102;14.434;2023-04-28T04:18:53;24.70;;;12.73;;
76127;SDS011;64873;50.102;14.434;2023-04-28T04:21:18;23.45;;;12.18;;
76127;SDS011;64873;50.102;14.434;2023-04-28T04:23:44;23.58;;;11.65;;
76127;SDS011;64873;50.102;14.434;2023-04-28T04:26:09;24.75;;;12.85;;
76127;SDS011;64873;50.102;14.434;2023-04-28T04:28:34;24.35;;;12.90;;
76127;SDS011;64873;50.102;14.434;2023-04-28T04:31:00;22.95;;;11.85;;
76127;SDS011;64873;50.102;14.434;2023-04-28T04:33:26;26.25;;;14.00;;
76127;SDS011;64873;50.102;14.434;2023-04-28T04:35:52;23.55;;;12.52;;
76127;SDS011;64873;50.102;14.434;2023-04-28T04:38:18;22.42;;;12.27;;
76127;SDS011;64873;50.102;14.434;2023-04-28T04:40:43;27.02;;;12.05;;
76127;SDS011;64873;50.102;14.434;2023-04-28T04:43:09;28.70;;;11.55;;
76127;SDS011;64873;50.102;14.434;2023-04-28T04:45:34;23.10;;;13.55;;
76127;SDS011;64873;50.102;14.434;2023-04-28T04:48:00;23.90;;;11.65;;
76127;SDS011;64873;50.102;14.434;2023-04-28T04:50:26;28.67;;;12.73;;
76127;SDS011;64873;50.102;14.434;2023-04-28T04:52:51;26.17;;;13.00;;
76127;SDS011;64873;50.102;14.434;2023-04-28T04:55:18;25.17;;;12.70;;
76127;SDS011;64873;50.102;14.434;2023-04-28T04:57:44;29.75;;;13.90;;
76127;SDS011;64873;50.102;14.434;2023-04-28T05:00:09;31.38;;;13.52;;
76127;SDS011;64873;50.102;14.434;2023-04-28T05:02:35;26.98;;;12.65;;
76127;SDS011;64873;50.102;14.434;2023-04-28T05:05:01;43.35;;;13.02;;
76127;SDS011;64873;50.102;14.434;2023-04-28T05:07:26;26.00;;;12.00;;
76127;SDS011;64873;50.102;14.434;2023-04-28T05:09:52;26.52;;;13.20;;
76127;SDS011;64873;50.102;14.434;2023-04-28T05:12:17;23.10;;;12.50;;
76127;SDS011;64873;50.102;14.434;2023-04-28T05:14:43;24.90;;;12.52;;
76127;SDS011;64873;50.102;14.434;2023-04-28T05:17:08;21.88;;;11.57;;
76127;SDS011;64873;50.102;14.434;2023-04-28T05:19:33;25.55;;;13.13;;
76127;SDS011;64873;50.102;14.434;2023-04-28T05:21:59;23.60;;;13.02;;
76127;SDS011;64873;50.102;14.434;2023-04-28T05:24:25;28.33;;;13.13;;
76127;SDS011;64873;50.102;14.434;2023-04-28T05:26:51;22.55;;;12.40;;
76127;SDS011;64873;50.102;14.434;2023-04-28T05:29:18;26.40;;;12.57;;
76127;SDS011;64873;50.102;14.434;2023-04-28T05:31:44;23.15;;;12.55;;
76127;SDS011;64873;50.102;14.434;2023-04-28T05:34:10;21.45;;;11.82;;
76127;SDS011;64873;50.102;14.434;2023-04-28T05:36:35;21.20;;;10.93;;
76127;SDS011;64873;50.102;14.434;2023-04-28T05:39:01;31.45;;;12.90;;
76127;SDS011;64873;50.102;14.434;2023-04-28T05:41:26;28.52;;;12.18;;
76127;SDS011;64873;50.102;14.434;2023-04-28T05:43:51;23.80;;;11.65;;
76127;SDS011;64873;50.102;14.434;2023-04-28T05:46:17;20.02;;;10.32;;
76127;SDS011;64873;50.102;14.434;2023-04-28T05:48:42;23.83;;;10.65;;
76127;SDS011;64873;50.102;14.434;2023-04-28T05:51:08;27.02;;;10.73;;
76127;SDS011;64873;50.102;14.434;2023-04-28T05:53:33;20.23;;;10.45;;
76127;SDS011;64873;50.102;14.434;2023-04-28T05:55:59;26.55;;;11.40;;
76127;SDS011;64873;50.102;14.434;2023-04-28T05:58:24;17.42;;;9.88;;
76127;SDS011;64873;50.102;14.434;2023-04-28T06:00:49;21.13;;;10.55;;
76127;SDS011;64873;50.102;14.434;2023-04-28T06:03:15;20.38;;;9.80;;
76127;SDS011;64873;50.102;14.434;2023-04-28T06:05:43;20.75;;;9.90;;
76127;SDS011;64873;50.102;14.434;2023-04-28T06:08:09;19.17;;;9.75;;
76127;SDS011;64873;50.102;14.434;2023-04-28T06:10:34;19.33;;;9.30;;
76127;SDS011;64873;50.102;14.434;2023-04-28T06:13:00;24.35;;;10.75;;
76127;SDS011;64873;50.102;14.434;2023-04-28T06:15:26;19.92;;;9.90;;
76127;SDS011;64873;50.102;14.434;2023-04-28T06:17:52;23.10;;;10.63;;
76127;SDS011;64873;50.102;14.434;2023-04-28T06:20:17;23.50;;;10.10;;
76127;SDS011;64873;50.102;14.434;2023-04-28T06:22:44;24.63;;;10.13;;
76127;SDS011;64873;50.102;14.434;2023-04-28T06:25:10;18.55;;;9.15;;
76127;SDS011;64873;50.102;14.434;2023-04-28T06:27:35;23.45;;;10.18;;
76127;SDS011;64873;50.102;14.434;2023-04-28T06:30:01;19.75;;;10.18;;
76127;SDS011;64873;50.102;14.434;2023-04-28T06:32:26;21.60;;;8.95;;
76127;SDS011;64873;50.102;14.434;2023-04-28T06:34:52;20.10;;;9.30;;
76127;SDS011;64873;50.102;14.434;2023-04-28T06:37:17;16.65;;;9.55;;
76127;SDS011;64873;50.102;14.434;2023-04-28T06:39:43;16.48;;;8.63;;
76127;SDS011;64873;50.102;14.434;2023-04-28T06:42:08;16.60;;;9.18;;
76127;SDS011;64873;50.102;14.434;2023-04-28T06:44:33;18.30;;;9.40;;
76127;SDS011;64873;50.102;14.434;2023-04-28T06:46:59;16.45;;;8.60;;
76127;SDS011;64873;50.102;14.434;2023-04-28T06:49:24;16.63;;;9.10;;
76127;SDS011;64873;50.102;14.434;2023-04-28T06:51:50;14.52;;;8.52;;
76127;SDS011;64873;50.102;14.434;2023-04-28T06:54:15;15.70;;;8.85;;
76127;SDS011;64873;50.102;14.434;2023-04-28T06:56:41;18.58;;;8.65;;
76127;SDS011;64873;50.102;14.434;2023-04-28T06:59:06;20.77;;;9.05;;
76127;SDS011;64873;50.102;14.434;2023-04-28T07:01:32;21.90;;;9.27;;
76127;SDS011;64873;50.102;14.434;2023-04-28T07:03:57;19.00;;;8.85;;
76127;SDS011;64873;50.102;14.434;2023-04-28T07:06:23;22.58;;;9.35;;
76127;SDS011;64873;50.102;14.434;2023-04-28T07:08:51;21.40;;;9.52;;
76127;SDS011;64873;50.102;14.434;2023-04-28T07:11:16;18.75;;;8.95;;
76127;SDS011;64873;50.102;14.434;2023-04-28T07:13:41;20.30;;;9.18;;
76127;SDS011;64873;50.102;14.434;2023-04-28T07:16:07;23.05;;;9.77;;
76127;SDS011;64873;50.102;14.434;2023-04-28T07:18:34;22.02;;;9.18;;
76127;SDS011;64873;50.102;14.434;2023-04-28T07:20:59;22.20;;;10.68;;
76127;SDS011;64873;50.102;14.434;2023-04-28T07:23:25;16.77;;;8.75;;
76127;SDS011;64873;50.102;14.434;2023-04-28T07:25:50;22.25;;;9.25;;
76127;SDS011;64873;50.102;14.434;2023-04-28T07:28:15;23.30;;;10.80;;
76127;SDS011;64873;50.102;14.434;2023-04-28T07:30:41;15.32;;;8.18;;
76127;SDS011;64873;50.102;14.434;2023-04-28T07:33:06;15.88;;;8.48;;
76127;SDS011;64873;50.102;14.434;2023-04-28T07:35:32;17.33;;;8.90;;
76127;SDS011;64873;50.102;14.434;2023-04-28T07:37:57;18.77;;;8.93;;
76127;SDS011;64873;50.102;14.434;2023-04-28T07:40:23;23.00;;;9.50;;
76127;SDS011;64873;50.102;14.434;2023-04-28T07:42:48;17.55;;;8.57;;
76127;SDS011;64873;50.102;14.434;2023-04-28T07:45:14;14.15;;;7.78;;
76127;SDS011;64873;50.102;14.434;2023-04-28T07:47:42;21.90;;;9.30;;
76127;SDS011;64873;50.102;14.434;2023-04-28T07:50:08;18.73;;;8.25;;
76127;SDS011;64873;50.102;14.434;2023-04-28T07:52:35;15.10;;;7.53;;
76127;SDS011;64873;50.102;14.434;2023-04-28T07:55:01;16.50;;;7.88;;
76127;SDS011;64873;50.102;14.434;2023-04-28T07:57:27;18.27;;;8.48;;
76127;SDS011;64873;50.102;14.434;2023-04-28T07:59:55;21.08;;;7.93;;
76127;SDS011;64873;50.102;14.434;2023-04-28T08:02:21;18.25;;;9.05;;
76127;SDS011;64873;50.102;14.434;2023-04-28T08:04:46;16.27;;;7.53;;
76127;SDS011;64873;50.102;14.434;2023-04-28T08:07:12;20.67;;;7.07;;
76127;SDS011;64873;50.102;14.434;2023-04-28T08:09:37;14.93;;;7.22;;
76127;SDS011;64873;50.102;14.434;2023-04-28T08:12:04;17.55;;;8.68;;
76127;SDS011;64873;50.102;14.434;2023-04-28T08:14:30;17.90;;;7.90;;
76127;SDS011;64873;50.102;14.434;2023-04-28T08:16:56;17.90;;;8.30;;
76127;SDS011;64873;50.102;14.434;2023-04-28T08:19:21;17.58;;;7.32;;
76127;SDS011;64873;50.102;14.434;2023-04-28T08:21:47;15.57;;;8.20;;
76127;SDS011;64873;50.102;14.434;2023-04-28T08:24:12;16.50;;;7.80;;
76127;SDS011;64873;50.102;14.434;2023-04-28T08:26:38;11.38;;;6.78;;
76127;SDS011;64873;50.102;14.434;2023-04-28T08:29:03;18.00;;;7.75;;
76127;SDS011;64873;50.102;14.434;2023-04-28T08:31:29;13.10;;;7.93;;
76127;SDS011;64873;50.102;14.434;2023-04-28T08:33:55;18.08;;;7.97;;
76127;SDS011;64873;50.102;14.434;2023-04-28T08:36:20;25.52;;;7.55;;
76127;SDS011;64873;50.102;14.434;2023-04-28T08:38:47;14.50;;;7.10;;
76127;SDS011;64873;50.102;14.434;2023-04-28T08:41:14;12.02;;;7.50;;
76127;SDS011;64873;50.102;14.434;2023-04-28T08:43:40;16.70;;;6.85;;
76127;SDS011;64873;50.102;14.434;2023-04-28T08:46:07;15.50;;;7.43;;
76127;SDS011;64873;50.102;14.434;2023-04-28T08:48:43;13.20;;;7.25;;
76127;SDS011;64873;50.102;14.434;2023-04-28T08:51:12;13.95;;;7.25;;
76127;SDS011;64873;50.102;14.434;2023-04-28T08:53:40;13.25;;;7.10;;
76127;SDS011;64873;50.102;14.434;2023-04-28T08:56:16;17.77;;;7.43;;
76127;SDS011;64873;50.102;14.434;2023-04-28T08:58:43;13.32;;;7.70;;
76127;SDS011;64873;50.102;14.434;2023-04-28T09:01:08;14.13;;;7.38;;
76127;SDS011;64873;50.102;14.434;2023-04-28T09:03:34;16.05;;;7.10;;
76127;SDS011;64873;50.102;14.434;2023-04-28T09:06:00;13.98;;;7.18;;
76127;SDS011;64873;50.102;14.434;2023-04-28T09:08:26;14.52;;;6.95;;
76127;SDS011;64873;50.102;14.434;2023-04-28T09:11:08;14.10;;;7.35;;
76127;SDS011;64873;50.102;14.434;2023-04-28T09:13:37;13.23;;;6.90;;
76127;SDS011;64873;50.102;14.434;2023-04-28T09:16:04;12.68;;;6.30;;
76127;SDS011;64873;50.102;14.434;2023-04-28T09:18:30;14.73;;;6.95;;
76127;SDS011;64873;50.102;14.434;2023-04-28T09:21:02;13.85;;;5.75;;
76127;SDS011;64873;50.102;14.434;2023-04-28T09:23:47;16.17;;;6.25;;
76127;SDS011;64873;50.102;14.434;2023-04-28T09:26:13;13.73;;;6.65;;
76127;SDS011;64873;50.102;14.434;2023-04-28T09:28:38;13.07;;;6.20;;
76127;SDS011;64873;50.102;14.434;2023-04-28T09:31:04;20.08;;;7.93;;
76127;SDS011;64873;50.102;14.434;2023-04-28T09:33:29;15.85;;;5.97;;
76127;SDS011;64873;50.102;14.434;2023-04-28T09:35:55;13.60;;;5.85;;
76127;SDS011;64873;50.102;14.434;2023-04-28T09:38:21;10.65;;;5.38;;
76127;SDS011;64873;50.102;14.434;2023-04-28T09:40:51;13.55;;;5.70;;
76127;SDS011;64873;50.102;14.434;2023-04-28T09:43:34;10.00;;;5.97;;
76127;SDS011;64873;50.102;14.434;2023-04-28T09:46:02;12.15;;;6.38;;
76127;SDS011;64873;50.102;14.434;2023-04-28T09:48:33;10.27;;;5.43;;
76127;SDS011;64873;50.102;14.434;2023-04-28T09:51:01;11.32;;;5.43;;
76127;SDS011;64873;50.102;14.434;2023-04-28T09:53:28;12.18;;;5.60;;
76127;SDS011;64873;50.102;14.434;2023-04-28T09:55:55;13.50;;;5.03;;
76127;SDS011;64873;50.102;14.434;2023-04-28T09:58:22;17.42;;;6.15;;
76127;SDS011;64873;50.102;14.434;2023-04-28T10:00:50;14.57;;;4.57;;
76127;SDS011;64873;50.102;14.434;2023-04-28T10:03:21;7.63;;;4.60;;
76127;SDS011;64873;50.102;14.434;2023-04-28T10:05:48;10.70;;;5.10;;
76127;SDS011;64873;50.102;14.434;2023-04-28T10:08:15;8.88;;;4.70;;
76127;SDS011;64873;50.102;14.434;2023-04-28T10:10:40;11.85;;;4.80;;
76127;SDS011;64873;50.102;14.434;2023-04-28T10:13:07;12.48;;;4.75;;
76127;SDS011;64873;50.102;14.434;2023-04-28T10:15:33;10.50;;;4.72;;
76127;SDS011;64873;50.102;14.434;2023-04-28T10:18:01;11.43;;;4.43;;
76127;SDS011;64873;50.102;14.434;2023-04-28T10:20:27;12.38;;;5.00;;
76127;SDS011;64873;50.102;14.434;2023-04-28T10:23:04;10.07;;;4.22;;
76127;SDS011;64873;50.102;14.434;2023-04-28T10:25:44;9.75;;;4.85;;
76127;SDS011;64873;50.102;14.434;2023-04-28T10:28:13;9.85;;;4.68;;
76127;SDS011;64873;50.102;14.434;2023-04-28T10:30:40;8.23;;;4.40;;
76127;SDS011;64873;50.102;14.434;2023-04-28T10:35:44;11.82;;;5.43;;
76127;SDS011;64873;50.102;14.434;2023-04-28T10:38:14;9.57;;;4.40;;
76127;SDS011;64873;50.102;14.434;2023-04-28T10:43:07;10.27;;;4.88;;
76127;SDS011;64873;50.102;14.434;2023-04-28T10:48:19;13.68;;;7.90;;
76127;SDS011;64873;50.102;14.434;2023-04-28T10:58:51;6.80;;;3.70;;
76127;SDS011;64873;50.102;14.434;2023-04-28T11:03:57;10.50;;;4.22;;
76127;SDS011;64873;50.102;14.434;2023-04-28T11:08:59;9.13;;;4.32;;
76127;SDS011;64873;50.102;14.434;2023-04-28T11:16:52;12.63;;;4.82;;
76127;SDS011;64873;50.102;14.434;2023-04-28T11:19:23;8.20;;;4.00;;
76127;SDS011;64873;50.102;14.434;2023-04-28T11:21:49;8.98;;;4.30;;
76127;SDS011;64873;50.102;14.434;2023-04-28T11:24:16;11.05;;;4.75;;
76127;SDS011;64873;50.102;14.434;2023-04-28T11:26:42;15.32;;;5.32;;
76127;SDS011;64873;50.102;14.434;2023-04-28T11:29:09;9.55;;;4.38;;
76127;SDS011;64873;50.102;14.434;2023-04-28T11:31:35;13.05;;;4.78;;
76127;SDS011;64873;50.102;14.434;2023-04-28T11:34:06;8.40;;;4.03;;
76127;SDS011;64873;50.102;14.434;2023-04-28T11:36:37;15.65;;;3.58;;
76127;SDS011;64873;50.102;14.434;2023-04-28T11:39:04;7.07;;;3.05;;
76127;SDS011;64873;50.102;14.434;2023-04-28T11:41:32;13.23;;;3.17;;
76127;SDS011;64873;50.102;14.434;2023-04-28T11:43:59;4.05;;;2.47;;
76127;SDS011;64873;50.102;14.434;2023-04-28T11:46:24;4.97;;;2.10;;
76127;SDS011;64873;50.102;14.434;2023-04-28T11:49:00;5.82;;;2.45;;
76127;SDS011;64873;50.102;14.434;2023-04-28T11:51:29;6.88;;;2.80;;
76127;SDS011;64873;50.102;14.434;2023-04-28T11:54:03;6.65;;;2.75;;
76127;SDS011;64873;50.102;14.434;2023-04-28T11:56:35;5.70;;;3.20;;
76127;SDS011;64873;50.102;14.434;2023-04-28T11:59:06;11.82;;;4.32;;
76127;SDS011;64873;50.102;14.434;2023-04-28T12:01:34;5.55;;;2.65;;
76127;SDS011;64873;50.102;14.434;2023-04-28T12:04:08;6.68;;;3.85;;
76127;SDS011;64873;50.102;14.434;2023-04-28T12:06:33;8.20;;;3.25;;
76127;SDS011;64873;50.102;14.434;2023-04-28T12:08:59;20.05;;;6.63;;
76127;SDS011;64873;50.102;14.434;2023-04-28T12:11:28;8.55;;;3.40;;
76127;SDS011;64873;50.102;14.434;2023-04-28T12:14:07;6.53;;;3.15;;
76127;SDS011;64873;50.102;14.434;2023-04-28T12:16:40;7.68;;;3.15;;
76127;SDS011;64873;50.102;14.434;2023-04-28T12:19:08;13.05;;;4.43;;
76127;SDS011;64873;50.102;14.434;2023-04-28T12:21:35;9.00;;;3.30;;
76127;SDS011;64873;50.102;14.434;2023-04-28T12:24:16;5.72;;;2.92;;
76127;SDS011;64873;50.102;14.434;2023-04-28T12:26:44;6.93;;;3.50;;
76127;SDS011;64873;50.102;14.434;2023-04-28T12:29:09;5.82;;;3.00;;
76127;SDS011;64873;50.102;14.434;2023-04-28T12:32:04;6.57;;;3.10;;
76127;SDS011;64873;50.102;14.434;2023-04-28T12:34:31;9.25;;;3.10;;
76127;SDS011;64873;50.102;14.434;2023-04-28T12:36:57;8.23;;;2.92;;
76127;SDS011;64873;50.102;14.434;2023-04-28T12:39:24;9.30;;;3.00;;
76127;SDS011;64873;50.102;14.434;2023-04-28T12:41:51;9.20;;;3.50;;
76127;SDS011;64873;50.102;14.434;2023-04-28T12:44:16;8.10;;;3.22;;
76127;SDS011;64873;50.102;14.434;2023-04-28T12:46:42;6.43;;;3.15;;
76127;SDS011;64873;50.102;14.434;2023-04-28T12:49:07;8.73;;;3.30;;
76127;SDS011;64873;50.102;14.434;2023-04-28T12:51:33;6.25;;;3.10;;
76127;SDS011;64873;50.102;14.434;2023-04-28T12:53:59;11.57;;;3.72;;
76127;SDS011;64873;50.102;14.434;2023-04-28T12:56:25;7.15;;;3.42;;
76127;SDS011;64873;50.102;14.434;2023-04-28T12:58:51;6.40;;;3.13;;
76127;SDS011;64873;50.102;14.434;2023-04-28T13:01:17;8.00;;;4.20;;
76127;SDS011;64873;50.102;14.434;2023-04-28T13:03:42;4.68;;;3.05;;
76127;SDS011;64873;50.102;14.434;2023-04-28T13:06:08;10.07;;;3.88;;
76127;SDS011;64873;50.102;14.434;2023-04-28T13:08:35;7.85;;;3.90;;
76127;SDS011;64873;50.102;14.434;2023-04-28T13:11:00;10.70;;;4.25;;
76127;SDS011;64873;50.102;14.434;2023-04-28T13:13:28;9.90;;;3.45;;
76127;SDS011;64873;50.102;14.434;2023-04-28T13:15:54;8.27;;;4.07;;
76127;SDS011;64873;50.102;14.434;2023-04-28T13:18:19;12.48;;;3.63;;
76127;SDS011;64873;50.102;14.434;2023-04-28T13:20:44;7.78;;;4.10;;
76127;SDS011;64873;50.102;14.434;2023-04-28T13:23:10;10.30;;;5.07;;
76127;SDS011;64873;50.102;14.434;2023-04-28T13:25:35;10.20;;;4.20;;
76127;SDS011;64873;50.102;14.434;2023-04-28T13:28:01;11.02;;;5.55;;
76127;SDS011;64873;50.102;14.434;2023-04-28T13:30:26;13.68;;;5.45;;
76127;SDS011;64873;50.102;14.434;2023-04-28T13:32:52;12.30;;;4.85;;
76127;SDS011;64873;50.102;14.434;2023-04-28T13:35:17;7.15;;;3.90;;
76127;SDS011;64873;50.102;14.434;2023-04-28T13:37:44;7.88;;;3.60;;
76127;SDS011;64873;50.102;14.434;2023-04-28T13:40:10;9.85;;;3.63;;
76127;SDS011;64873;50.102;14.434;2023-04-28T13:42:36;7.63;;;3.50;;
76127;SDS011;64873;50.102;14.434;2023-04-28T13:45:02;7.25;;;4.10;;
76127;SDS011;64873;50.102;14.434;2023-04-28T13:47:28;13.70;;;4.63;;
76127;SDS011;64873;50.102;14.434;2023-04-28T13:49:56;7.25;;;4.22;;
76127;SDS011;64873;50.102;14.434;2023-04-28T13:52:24;7.07;;;3.67;;
76127;SDS011;64873;50.102;14.434;2023-04-28T13:54:50;7.60;;;3.47;;
76127;SDS011;64873;50.102;14.434;2023-04-28T13:57:15;6.97;;;3.28;;
76127;SDS011;64873;50.102;14.434;2023-04-28T13:59:41;8.48;;;3.80;;
76127;SDS011;64873;50.102;14.434;2023-04-28T14:02:06;8.73;;;3.88;;
76127;SDS011;64873;50.102;14.434;2023-04-28T14:04:33;6.18;;;3.17;;
76127;SDS011;64873;50.102;14.434;2023-04-28T14:06:59;6.63;;;3.58;;
76127;SDS011;64873;50.102;14.434;2023-04-28T14:09:25;10.25;;;3.45;;
76127;SDS011;64873;50.102;14.434;2023-04-28T14:11:50;8.80;;;3.40;;
76127;SDS011;64873;50.102;14.434;2023-04-28T14:14:16;8.05;;;4.15;;
76127;SDS011;64873;50.102;14.434;2023-04-28T14:16:41;9.60;;;3.80;;
76127;SDS011;64873;50.102;14.434;2023-04-28T14:19:07;7.85;;;3.53;;
76127;SDS011;64873;50.102;14.434;2023-04-28T14:21:33;8.57;;;3.75;;
76127;SDS011;64873;50.102;14.434;2023-04-28T14:23:59;7.88;;;3.80;;
76127;SDS011;64873;50.102;14.434;2023-04-28T14:26:24;6.47;;;3.90;;
76127;SDS011;64873;50.102;14.434;2023-04-28T14:28:51;8.95;;;3.95;;
76127;SDS011;64873;50.102;14.434;2023-04-28T14:31:16;11.23;;;4.30;;
76127;SDS011;64873;50.102;14.434;2023-04-28T14:33:42;7.47;;;3.67;;
76127;SDS011;64873;50.102;14.434;2023-04-28T14:36:08;9.88;;;3.97;;
76127;SDS011;64873;50.102;14.434;2023-04-28T14:38:34;14.45;;;3.25;;
76127;SDS011;64873;50.102;14.434;2023-04-28T14:40:59;5.35;;;2.78;;